Time;durP1;ratioP1;P1;durP2;ratioP2;P2;SDS_P1;SDS_P2;PMS_P1;PMS_P2;Temp;Humidity;BMP_temperature;BMP_pressure;BME280_temperature;BME280_humidity;BME280_pressure;Samples;Min_cycle;Max_cycle;Signal;HPM_P1;HPM_P2
2024/04/14 00:01:03;;;;;;;9.15;4.25;;;;;;;18.84;76.95;100891.44;6542545;21;19995;-85
2024/04/14 00:03:34;;;;;;;9.60;4.57;;;;;;;18.85;76.61;100901.13;6589281;21;20736;-86
2024/04/14 00:06:03;;;;;;;7.68;4.13;;;;;;;18.82;76.80;100882.69;6586166;21;20011;-85
2024/04/14 00:08:31;;;;;;;7.75;4.35;;;;;;;18.76;77.31;100893.53;6542875;21;20043;-86
2024/04/14 00:11:00;;;;;;;4.13;3.72;;;;;;;18.68;77.45;100885.88;6541013;21;20006;-87
2024/04/14 00:13:25;;;;;;;7.43;4.00;;;;;;;18.61;78.41;100889.69;6544738;21;20003;-85
2024/04/14 00:16:03;;;;;;;7.63;3.83;;;;;;;18.55;78.70;100887.28;6499404;21;19992;-84
2024/04/14 00:18:28;;;;;;;6.78;3.70;;;;;;;18.49;78.99;100885.75;6543860;21;20028;-86
2024/04/14 00:20:57;;;;;;;6.97;4.68;;;;;;;18.44;79.68;100896.50;6584171;21;20069;-87
2024/04/14 00:23:24;;;;;;;7.65;3.78;;;;;;;18.38;80.25;100898.53;6543912;21;19999;-86
2024/04/14 00:25:53;;;;;;;7.35;4.43;;;;;;;18.26;79.83;100890.09;6585980;21;19992;-87
2024/04/14 00:28:18;;;;;;;7.03;4.13;;;;;;;18.15;78.50;100892.31;6544265;21;20044;-85
2024/04/14 00:30:47;;;;;;;6.97;3.67;;;;;;;18.08;78.13;100885.50;6586831;21;20093;-85
2024/04/14 00:33:15;;;;;;;4.88;3.58;;;;;;;17.97;77.08;100897.34;6586961;21;20370;-86
2024/04/14 00:35:44;;;;;;;3.47;2.97;;;;;;;17.89;77.42;100906.47;6586671;21;20036;-85
2024/04/14 00:38:09;;;;;;;7.15;3.25;;;;;;;17.77;76.26;100897.13;6584731;21;20004;-86
2024/04/14 00:40:38;;;;;;;3.13;2.53;;;;;;;17.72;74.35;100899.09;6541518;21;20002;-84
2024/04/14 00:43:04;;;;;;;5.63;3.40;;;;;;;17.62;73.62;100902.06;6585588;21;20111;-85
2024/04/14 00:45:34;;;;;;;4.60;2.40;;;;;;;17.54;73.21;100898.81;6585287;21;20424;-86
2024/04/14 00:47:59;;;;;;;3.95;2.67;;;;;;;17.45;73.63;100899.13;6586376;21;20019;-85
2024/04/14 00:50:31;;;;;;;3.30;2.20;;;;;;;17.38;73.41;100909.06;6545246;21;20455;-84
2024/04/14 00:52:56;;;;;;;7.60;2.72;;;;;;;17.32;73.77;100906.59;6543288;21;20018;-83
2024/04/14 00:55:25;;;;;;;4.63;2.35;;;;;;;17.25;74.29;100903.31;6587702;21;19996;-85
2024/04/14 00:57:54;;;;;;;5.95;2.60;;;;;;;17.17;74.61;100916.78;6588637;21;20003;-87
2024/04/14 01:00:23;;;;;;;3.58;2.40;;;;;;;17.10;74.48;100911.72;6546125;21;20000;-86
2024/04/14 01:02:55;;;;;;;6.03;2.70;;;;;;;17.03;74.79;100905.78;6587821;21;19996;-84
2024/04/14 01:05:27;;;;;;;4.68;2.75;;;;;;;16.97;75.38;100911.25;6544845;21;20014;-85
2024/04/14 01:07:57;;;;;;;2.63;2.42;;;;;;;16.91;75.92;100916.72;6588265;21;20102;-85
2024/04/14 01:10:27;;;;;;;3.97;2.58;;;;;;;16.85;75.72;100912.47;6543373;21;20000;-86
2024/04/14 01:12:53;;;;;;;5.32;3.20;;;;;;;16.78;76.61;100913.56;6544192;21;20003;-86
2024/04/14 01:15:24;;;;;;;3.78;2.28;;;;;;;16.67;77.41;100917.44;6543900;21;20381;-84
2024/04/14 01:17:50;;;;;;;3.22;2.40;;;;;;;16.62;77.64;100926.38;6587752;21;20008;-87
2024/04/14 01:20:18;;;;;;;2.67;2.40;;;;;;;16.53;77.26;100924.88;6542975;21;20040;-84
2024/04/14 01:22:44;;;;;;;4.10;2.50;;;;;;;16.48;77.12;100934.75;6543210;21;19991;-84
2024/04/14 01:25:13;;;;;;;4.38;2.10;;;;;;;16.45;75.67;100937.44;6586059;21;20032;-86
2024/04/14 01:27:40;;;;;;;6.22;2.95;;;;;;;16.41;75.15;100930.53;6587195;21;19992;-86
2024/04/14 01:30:09;;;;;;;8.85;2.13;;;;;;;16.37;75.11;100949.13;6543682;21;20307;-86
2024/04/14 01:32:37;;;;;;;3.53;2.33;;;;;;;16.31;74.60;100944.00;6587904;21;20391;-84
2024/04/14 01:35:07;;;;;;;6.47;2.22;;;;;;;16.35;73.99;100950.94;6543716;21;20303;-84
2024/04/14 01:37:33;;;;;;;3.80;2.10;;;;;;;16.31;73.29;100954.56;6543811;21;19995;-84
2024/04/14 01:40:01;;;;;;;3.92;2.58;;;;;;;16.32;72.93;100955.44;6542540;21;20015;-85
2024/04/14 01:42:32;;;;;;;5.57;1.88;;;;;;;16.29;73.07;100963.44;6586418;21;20014;-86
2024/04/14 01:45:02;;;;;;;3.88;2.10;;;;;;;16.24;72.47;100957.44;6543649;21;20215;-85
2024/04/14 01:47:28;;;;;;;2.58;1.92;;;;;;;16.20;71.87;100961.91;6544863;21;20000;-84
2024/04/14 01:49:58;;;;;;;4.97;2.40;;;;;;;16.09;72.47;100964.84;6542061;21;20015;-87
2024/04/14 01:52:27;;;;;;;3.55;2.10;;;;;;;16.03;72.38;100972.94;6543703;21;20000;-85
2024/04/14 01:54:55;;;;;;;4.43;1.73;;;;;;;15.95;73.07;100981.06;6542480;21;20000;-85
2024/04/14 01:57:20;;;;;;;3.42;1.80;;;;;;;15.87;72.87;100968.06;6543268;21;19999;-86
2024/04/14 01:59:51;;;;;;;2.30;1.33;;;;;;;15.81;73.83;100972.63;6541847;21;20023;-83
2024/04/14 02:02:17;;;;;;;1.80;1.30;;;;;;;15.76;73.46;100974.50;6546314;21;19996;-86
2024/04/14 02:04:45;;;;;;;3.15;1.60;;;;;;;15.71;73.39;100978.13;6541890;21;20277;-86
2024/04/14 02:07:11;;;;;;;3.13;1.20;;;;;;;15.68;73.55;100972.94;6585396;21;19996;-85
2024/04/14 02:09:41;;;;;;;3.05;1.90;;;;;;;15.66;73.65;100984.44;6543976;21;20668;-85
2024/04/14 02:12:07;;;;;;;8.10;2.40;;;;;;;15.63;73.68;100982.72;6546633;21;20049;-84
2024/04/14 02:14:35;;;;;;;3.25;1.80;;;;;;;15.58;73.89;100994.28;6546932;21;20000;-83
2024/04/14 02:17:06;;;;;;;2.60;1.40;;;;;;;15.50;74.82;100990.06;6593525;21;20095;-85
2024/04/14 02:19:35;;;;;;;2.65;1.25;;;;;;;15.44;74.82;100992.00;6546462;21;20007;-86
2024/04/14 02:22:00;;;;;;;3.55;1.77;;;;;;;15.35;75.36;100983.38;6588950;21;20004;-85
2024/04/14 02:24:32;;;;;;;2.92;1.60;;;;;;;15.30;75.52;101001.06;6590350;21;20004;-83
2024/04/14 02:26:58;;;;;;;6.65;2.13;;;;;;;15.25;75.46;100997.69;6593221;21;19992;-86
2024/04/14 02:29:27;;;;;;;3.78;1.90;;;;;;;15.27;75.42;100990.59;6589609;21;19996;-87
2024/04/14 02:31:52;;;;;;;2.40;1.30;;;;;;;15.27;75.35;100998.53;6543153;21;20404;-86
2024/04/14 02:34:22;;;;;;;3.17;1.55;;;;;;;15.30;75.08;101000.22;6538197;21;20010;-85
2024/04/14 02:36:47;;;;;;;4.22;1.10;;;;;;;15.31;75.10;101009.88;6545315;21;20115;-85
2024/04/14 02:39:16;;;;;;;2.22;1.55;;;;;;;15.22;75.07;101005.66;6545101;21;20000;-85
2024/04/14 02:41:41;;;;;;;3.13;1.88;;;;;;;15.21;75.41;101014.47;6543158;21;20031;-85
2024/04/14 02:44:10;;;;;;;3.58;1.30;;;;;;;15.23;75.28;101017.97;6586827;21;20082;-86
2024/04/14 02:46:35;;;;;;;4.93;1.80;;;;;;;15.21;75.18;101023.28;6589113;21;20054;-86
2024/04/14 02:49:04;;;;;;;2.53;1.50;;;;;;;15.25;75.43;101024.06;6543321;21;19995;-86
2024/04/14 02:51:29;;;;;;;2.85;1.65;;;;;;;15.24;75.33;101022.34;6543461;21;20048;-87
2024/04/14 02:53:58;;;;;;;9.25;2.15;;;;;;;15.22;76.06;101019.72;6543883;21;20000;-84
2024/04/14 02:56:23;;;;;;;3.10;1.50;;;;;;;15.19;76.27;101022.44;6543913;21;20003;-86
2024/04/14 02:58:51;;;;;;;5.93;1.50;;;;;;;15.20;76.45;101023.28;6543041;21;20006;-85
2024/04/14 03:01:18;;;;;;;1.95;1.50;;;;;;;15.14;76.63;101008.47;6585985;21;20004;-85
2024/04/14 03:03:53;;;;;;;2.25;1.55;;;;;;;15.15;77.46;101033.09;6536357;21;20000;-84
2024/04/14 03:06:21;;;;;;;3.63;1.92;;;;;;;15.06;77.29;101028.88;6574815;21;20006;-86
2024/04/14 03:08:50;;;;;;;4.38;1.30;;;;;;;15.07;77.37;101028.00;6589182;21;20070;-86
2024/04/14 03:11:16;;;;;;;2.83;1.55;;;;;;;15.01;77.35;101034.25;6587163;21;19996;-87
2024/04/14 03:13:44;;;;;;;3.70;1.20;;;;;;;15.03;76.83;101031.56;6542984;21;20009;-86
2024/04/14 03:16:10;;;;;;;6.13;1.70;;;;;;;15.03;77.02;101036.84;6542216;21;19999;-84
2024/04/14 03:18:38;;;;;;;5.80;1.63;;;;;;;15.01;76.68;101028.97;6586652;21;20016;-85
2024/04/14 03:21:06;;;;;;;6.95;1.67;;;;;;;15.01;76.91;101023.69;6544189;21;19999;-85
2024/04/14 03:23:35;;;;;;;4.72;1.27;;;;;;;15.04;76.51;101035.94;6543130;21;20416;-87
2024/04/14 03:26:01;;;;;;;3.40;1.27;;;;;;;15.04;76.48;101035.94;6542301;21;20085;-85
2024/04/14 03:28:31;;;;;;;2.53;2.15;;;;;;;15.01;76.80;101036.03;6542876;21;20081;-85
2024/04/14 03:31:01;;;;;;;8.93;2.63;;;;;;;14.96;76.81;101027.34;6543695;21;20326;-85
2024/04/14 03:33:31;;;;;;;4.57;1.50;;;;;;;14.88;77.94;101033.63;6588786;21;21109;-83
2024/04/14 03:36:06;;;;;;;3.65;1.38;;;;;;;14.78;78.33;101033.84;6592739;21;20015;-86
2024/04/14 03:38:35;;;;;;;4.78;1.48;;;;;;;14.74;78.34;101033.03;6543073;21;20053;-85
2024/04/14 03:41:03;;;;;;;4.32;1.85;;;;;;;14.69;78.56;101046.31;6586360;21;20000;-85
2024/04/14 03:43:32;;;;;;;6.75;2.00;;;;;;;14.70;79.20;101048.03;6544312;21;20411;-87
2024/04/14 03:46:03;;;;;;;4.40;1.70;;;;;;;14.72;79.18;101040.13;6592577;21;20007;-85
2024/04/14 03:48:31;;;;;;;;;;;;;;;14.70;79.84;101044.56;6588078;21;19999;-84
2024/04/14 03:50:59;;;;;;;6.47;2.33;;;;;;;14.69;80.25;101050.72;6585964;21;19921;-86
2024/04/14 03:53:25;;;;;;;2.08;1.70;;;;;;;14.73;80.30;101049.75;6588180;21;19999;-86
2024/04/14 03:55:53;;;;;;;5.72;1.92;;;;;;;14.72;80.60;101048.03;6586538;21;20012;-85
2024/04/14 03:58:19;;;;;;;5.13;1.90;;;;;;;14.75;80.56;101045.31;6543007;21;20450;-85
2024/04/14 04:00:47;;;;;;;8.38;2.42;;;;;;;14.71;80.82;101046.28;6584770;21;20012;-87
2024/04/14 04:03:13;;;;;;;7.72;2.00;;;;;;;14.69;81.42;101043.69;6540628;21;20011;-86
2024/04/14 04:05:41;;;;;;;3.40;2.25;;;;;;;14.70;81.06;101055.94;6541885;21;20008;-85
2024/04/14 04:08:08;;;;;;;4.63;1.85;;;;;;;14.71;81.56;101052.41;6586668;21;19999;-86
2024/04/14 04:10:36;;;;;;;9.77;2.15;;;;;;;14.73;81.77;101055.00;6585809;21;20003;-85
2024/04/14 04:13:02;;;;;;;6.07;2.38;;;;;;;14.72;81.83;101056.78;6585355;21;20071;-86
2024/04/14 04:15:30;;;;;;;6.05;2.45;;;;;;;14.74;81.85;101055.91;6541725;21;20020;-85
2024/04/14 04:17:56;;;;;;;3.03;2.25;;;;;;;14.72;82.34;101054.16;6586627;21;20292;-85
2024/04/14 04:20:24;;;;;;;9.75;2.63;;;;;;;14.71;82.43;101060.31;6540461;21;20010;-85
2024/04/14 04:22:50;;;;;;;7.03;3.03;;;;;;;14.66;83.12;101058.69;6542259;21;20068;-85
2024/04/14 04:25:18;;;;;;;2.97;2.00;;;;;;;14.59;83.92;101059.66;6584446;21;20000;-85
2024/04/14 04:27:44;;;;;;;4.63;2.00;;;;;;;14.43;86.67;101075.78;6542668;21;20069;-84
2024/04/14 04:30:15;;;;;;;5.88;2.55;;;;;;;14.44;86.76;101074.00;6585592;21;20011;-85
2024/04/14 04:32:40;;;;;;;4.65;1.60;;;;;;;14.34;85.16;101070.66;6587114;21;19999;-85
2024/04/14 04:35:10;;;;;;;4.57;1.50;;;;;;;14.27;81.08;101077.78;6586140;21;20000;-87
2024/04/14 04:37:36;;;;;;;6.22;1.17;;;;;;;14.22;78.99;101084.91;6544352;21;20007;-86
2024/04/14 04:40:04;;;;;;;3.30;2.30;;;;;;;14.22;76.50;101087.53;6585307;21;19999;-85
2024/04/14 04:42:30;;;;;;;2.72;0.60;;;;;;;14.18;74.01;101085.84;6542754;21;20018;-86
2024/04/14 04:44:58;;;;;;;3.20;0.80;;;;;;;14.13;71.99;101092.97;6543467;21;20307;-85
2024/04/14 04:47:24;;;;;;;1.17;0.82;;;;;;;14.04;70.08;101099.22;6543950;21;20305;-85
2024/04/14 04:49:52;;;;;;;2.63;0.35;;;;;;;14.06;67.87;101110.63;6587791;21;20011;-85
2024/04/14 04:52:18;;;;;;;0.80;0.28;;;;;;;14.01;66.98;101115.94;6543633;21;20006;-84
2024/04/14 04:54:46;;;;;;;1.85;0.55;;;;;;;13.98;66.41;101123.91;6542931;21;20850;-84
2024/04/14 04:57:12;;;;;;;1.92;0.50;;;;;;;13.91;66.54;101122.28;6588608;21;20432;-85
2024/04/14 04:59:40;;;;;;;3.58;0.43;;;;;;;13.92;66.86;101125.75;6587649;21;20010;-85
2024/04/14 05:02:07;;;;;;;0.40;0.40;;;;;;;13.84;67.24;101134.63;6543442;21;20424;-86
2024/04/14 05:04:36;;;;;;;4.32;0.77;;;;;;;13.85;67.83;101138.16;6543259;21;19996;-85
2024/04/14 05:07:05;;;;;;;2.25;0.55;;;;;;;13.73;68.53;101136.56;6542556;21;20014;-86
2024/04/14 05:09:34;;;;;;;3.97;0.77;;;;;;;13.58;69.09;101135.00;6542824;21;20008;-84
2024/04/14 05:12:03;;;;;;;1.15;0.50;;;;;;;13.48;69.46;101126.38;6586909;21;20015;-84
2024/04/14 05:14:31;;;;;;;2.00;0.82;;;;;;;13.49;69.53;101137.75;6587521;21;20007;-85
2024/04/14 05:16:57;;;;;;;1.75;0.85;;;;;;;13.46;69.98;101137.81;6587017;21;20031;-85
2024/04/14 05:19:25;;;;;;;2.17;0.52;;;;;;;13.43;69.81;101133.47;6544389;21;20000;-86
2024/04/14 05:21:51;;;;;;;1.95;0.90;;;;;;;13.56;70.11;101149.97;6587345;21;20076;-85
2024/04/14 05:24:19;;;;;;;2.83;0.80;;;;;;;13.59;69.94;101142.00;6543342;21;20014;-83
2024/04/14 05:26:45;;;;;;;3.72;0.73;;;;;;;13.56;70.56;101155.22;6590584;21;20000;-86
2024/04/14 05:29:15;;;;;;;1.40;0.65;;;;;;;13.48;70.11;101154.44;6544775;21;20319;-84
2024/04/14 05:31:41;;;;;;;1.17;0.88;;;;;;;13.51;70.57;101157.91;6541647;21;20027;-86
2024/04/14 05:34:13;;;;;;;1.55;0.70;;;;;;;13.61;70.45;101163.03;6542862;21;20374;-86
2024/04/14 05:36:40;;;;;;;3.20;0.50;;;;;;;13.62;70.04;101165.63;6545305;21;20011;-87
2024/04/14 05:39:09;;;;;;;4.75;0.60;;;;;;;13.64;69.97;101166.50;6589748;21;20051;-87
2024/04/14 05:41:35;;;;;;;2.85;0.45;;;;;;;13.64;69.63;101169.13;6551223;21;20003;-86
2024/04/14 05:44:07;;;;;;;2.58;0.60;;;;;;;13.69;68.82;101180.47;6504344;21;20031;-85
2024/04/14 05:46:32;;;;;;;2.40;0.63;;;;;;;13.63;67.03;101188.44;6587881;21;20012;-87
2024/04/14 05:49:03;;;;;;;4.45;1.00;;;;;;;13.64;66.87;101189.31;6544196;21;20020;-85
2024/04/14 05:51:28;;;;;;;1.95;0.70;;;;;;;13.66;67.25;101200.69;6586280;21;20635;-87
2024/04/14 05:54:00;;;;;;;3.17;0.73;;;;;;;13.73;66.69;101203.22;6503314;21;20660;-85
2024/04/14 05:56:26;;;;;;;2.58;0.55;;;;;;;13.85;65.65;101214.47;6586907;21;20059;-86
2024/04/14 05:58:54;;;;;;;3.42;0.77;;;;;;;13.93;65.22;101211.72;6588039;21;20000;-84
2024/04/14 06:01:19;;;;;;;2.63;0.70;;;;;;;13.86;65.44;101214.44;6588488;21;20043;-85
2024/04/14 06:03:49;;;;;;;5.80;1.08;;;;;;;13.82;64.94;101209.22;6589179;21;20046;-85
2024/04/14 06:06:17;;;;;;;3.25;0.75;;;;;;;13.87;65.67;101217.94;6588746;21;20019;-85
2024/04/14 06:08:45;;;;;;;2.70;0.90;;;;;;;14.01;65.45;101230.91;6589371;21;19991;-85
2024/04/14 06:11:11;;;;;;;2.28;0.60;;;;;;;14.05;65.04;101230.88;6547435;21;20003;-85
2024/04/14 06:13:39;;;;;;;4.35;0.88;;;;;;;14.02;64.50;101230.03;6545523;21;20007;-84
2024/04/14 06:16:06;;;;;;;4.75;0.90;;;;;;;14.17;64.38;101234.19;6546656;21;19996;-84
2024/04/14 06:18:34;;;;;;;1.75;0.60;;;;;;;14.20;63.94;101236.78;6589607;21;19999;-86
2024/04/14 06:21:00;;;;;;;2.97;0.90;;;;;;;14.17;63.87;101234.19;6544465;21;20014;-85
2024/04/14 06:23:29;;;;;;;3.25;0.70;;;;;;;14.29;63.34;101235.75;6587080;21;20000;-85
2024/04/14 06:25:55;;;;;;;3.10;0.80;;;;;;;14.33;63.30;101227.81;6545078;21;20416;-85
2024/04/14 06:28:25;;;;;;;2.58;1.77;;;;;;;14.20;62.66;101235.03;6545309;21;20011;-86
2024/04/14 06:30:55;;;;;;;1.88;0.47;;;;;;;14.21;62.19;101239.41;6545298;21;20088;-87
2024/04/14 06:33:24;;;;;;;3.97;1.00;;;;;;;14.24;62.55;101238.50;6543471;21;19999;-84
2024/04/14 06:35:51;;;;;;;3.00;0.77;;;;;;;14.32;61.85;101249.75;6587739;21;20307;-85
2024/04/14 06:38:20;;;;;;;3.65;1.02;;;;;;;14.28;61.58;101242.81;6588212;21;20027;-85
2024/04/14 06:40:46;;;;;;;5.03;0.85;;;;;;;14.25;61.74;101234.06;6637016;21;20004;-87
2024/04/14 06:43:21;;;;;;;1.42;0.70;;;;;;;14.47;60.42;101247.78;6545568;21;20002;-84
2024/04/14 06:45:54;;;;;;;2.80;1.00;;;;;;;15.32;56.93;101246.38;6593008;21;20015;-86
2024/04/14 06:48:25;;;;;;;1.23;0.50;;;;;;;17.37;51.16;101246.03;6590157;21;20066;-86
2024/04/14 06:50:56;;;;;;;5.10;1.35;;;;;;;19.26;46.33;101254.28;6546761;21;19999;-86
2024/04/14 06:53:24;;;;;;;3.25;0.73;;;;;;;19.75;44.09;101248.97;6547392;21;20012;-85
2024/04/14 06:55:51;;;;;;;3.47;0.40;;;;;;;19.59;42.71;101255.75;6590189;21;20326;-86
2024/04/14 06:58:24;;;;;;;2.58;0.30;;;;;;;19.70;41.42;101260.66;6504885;21;20003;-87
2024/04/14 07:00:53;;;;;;;3.75;0.90;;;;;;;19.16;42.43;101260.84;6589114;21;20497;-86
2024/04/14 07:03:25;;;;;;;4.68;0.70;;;;;;;18.52;43.90;101268.25;6588127;21;20000;-86
2024/04/14 07:05:50;;;;;;;2.63;0.70;;;;;;;18.62;44.02;101260.84;6545578;21;20011;-86
2024/04/14 07:08:21;;;;;;;4.75;0.88;;;;;;;18.78;43.96;101266.50;6587247;21;19996;-87
2024/04/14 07:10:50;;;;;;;4.40;0.75;;;;;;;19.23;43.29;101266.78;6588421;21;20007;-86
2024/04/14 07:13:18;;;;;;;5.32;0.60;;;;;;;19.92;41.84;101266.94;6543781;21;20004;-85
2024/04/14 07:15:47;;;;;;;3.95;0.70;;;;;;;20.99;40.35;101276.00;6547185;21;19999;-86
2024/04/14 07:18:16;;;;;;;1.00;0.65;;;;;;;21.13;40.26;101278.03;6543949;21;20015;-85
2024/04/14 07:20:42;;;;;;;1.38;0.70;;;;;;;19.73;42.73;101285.31;6545409;21;20035;-83
2024/04/14 07:23:13;;;;;;;4.00;1.50;;;;;;;19.77;43.33;101284.28;6543813;21;19996;-85
2024/04/14 07:25:38;;;;;;;4.93;0.75;;;;;;;18.93;45.00;101278.44;6546057;21;20014;-87
2024/04/14 07:28:07;;;;;;;2.97;1.25;;;;;;;19.09;44.05;101277.91;6542752;21;20414;-85
2024/04/14 07:30:32;;;;;;;6.20;1.20;;;;;;;18.45;44.96;101279.94;6587996;21;20014;-85
2024/04/14 07:33:01;;;;;;;2.38;0.60;;;;;;;17.83;46.28;101287.09;6586153;21;20004;-84
2024/04/14 07:35:26;;;;;;;4.30;0.77;;;;;;;17.91;45.22;101278.06;6587986;21;20451;-86
2024/04/14 07:37:57;;;;;;;3.20;0.45;;;;;;;18.74;44.02;101280.78;6588062;21;19995;-86
2024/04/14 07:40:24;;;;;;;6.80;0.90;;;;;;;19.37;41.40;101275.13;6544007;21;20408;-84
2024/04/14 07:42:53;;;;;;;4.88;0.40;;;;;;;20.15;40.70;101278.47;6586339;21;19996;-85
2024/04/14 07:45:19;;;;;;;2.85;0.63;;;;;;;20.17;41.59;101272.16;6590975;21;20014;-86
2024/04/14 07:47:47;;;;;;;3.20;0.60;;;;;;;20.53;40.40;101277.88;6589148;21;20032;-86
2024/04/14 07:50:12;;;;;;;1.10;0.73;;;;;;;20.64;40.73;101276.50;6545178;21;20000;-85
2024/04/14 07:52:41;;;;;;;5.88;0.52;;;;;;;20.27;41.00;101285.09;6543507;21;20006;-87
2024/04/14 07:55:06;;;;;;;4.65;1.20;;;;;;;21.18;39.94;101288.50;6545215;21;20011;-87
2024/04/14 07:57:35;;;;;;;4.00;1.02;;;;;;;21.49;38.79;101288.00;6543140;21;20046;-85
2024/04/14 08:00:01;;;;;;;2.50;0.70;;;;;;;20.89;40.26;101294.13;6587043;21;20032;-86
2024/04/14 08:02:29;;;;;;;5.03;1.58;;;;;;;21.08;39.67;101298.66;6585169;21;20004;-86
2024/04/14 08:04:55;;;;;;;6.55;0.90;;;;;;;20.54;41.54;101293.75;6543858;21;20421;-85
2024/04/14 08:07:23;;;;;;;3.88;0.95;;;;;;;20.34;42.21;101291.91;6585565;21;19991;-87
2024/04/14 08:09:49;;;;;;;4.03;0.77;;;;;;;19.72;42.25;101304.00;6545825;21;20363;-85
2024/04/14 08:12:17;;;;;;;3.60;1.10;;;;;;;19.57;40.84;101308.94;6591306;21;20010;-85
2024/04/14 08:14:43;;;;;;;3.45;0.60;;;;;;;18.07;42.46;101323.53;6634412;21;20035;-86
2024/04/14 08:17:14;;;;;;;3.00;0.60;;;;;;;17.47;43.17;101323.41;6590595;21;20485;-86
2024/04/14 08:19:42;;;;;;;4.28;1.02;;;;;;;17.31;45.26;101317.66;6586510;21;19996;-86
2024/04/14 08:22:14;;;;;;;8.38;1.17;;;;;;;16.98;46.01;101321.13;6542838;21;20000;-86
2024/04/14 08:24:40;;;;;;;2.03;0.43;;;;;;;16.84;46.02;101313.53;6549073;21;20077;-87
2024/04/14 08:27:11;;;;;;;4.88;1.45;;;;;;;16.96;46.40;101320.31;6597244;21;20004;-86
2024/04/14 08:29:37;;;;;;;2.15;0.85;;;;;;;17.12;46.60;101331.38;6592740;21;20018;-86
2024/04/14 08:35:10;;;;;;;3.67;0.55;;;;;;;17.89;45.66;101332.88;5556700;25;20431;-85
2024/04/14 08:37:39;;;;;;;4.22;0.52;;;;;;;18.21;44.87;101339.88;5506588;25;20025;-86
2024/04/14 08:40:11;;;;;;;2.17;0.60;;;;;;;18.01;43.97;101328.09;5495582;26;20017;-86
2024/04/14 08:42:46;;;;;;;1.95;0.77;;;;;;;17.34;42.47;101349.34;5495072;25;20064;-88
2024/04/14 08:45:18;;;;;;;2.13;0.75;;;;;;;17.49;40.58;101345.41;5488983;25;20468;-83
2024/04/14 08:47:47;;;;;;;1.25;0.47;;;;;;;17.61;40.31;101354.81;5535741;25;20006;-88
2024/04/14 08:50:16;;;;;;;4.15;0.90;;;;;;;17.53;40.29;101350.59;5468165;25;20012;-85
2024/04/14 08:52:55;;;;;;;3.20;0.75;;;;;;;17.08;41.53;101342.06;5497319;25;19990;-86
2024/04/14 08:55:23;;;;;;;2.17;0.77;;;;;;;16.95;42.94;101349.44;5513496;25;20004;-85
2024/04/14 08:57:49;;;;;;;1.58;0.70;;;;;;;16.91;42.41;101350.41;5469937;26;20017;-86
2024/04/14 09:00:22;;;;;;;1.80;1.05;;;;;;;17.24;42.44;101356.63;5471541;25;19997;-88
2024/04/14 09:02:50;;;;;;;4.15;0.85;;;;;;;17.94;41.53;101357.44;5466502;25;19997;-87
2024/04/14 09:05:20;;;;;;;2.50;0.60;;;;;;;18.00;40.37;101357.28;5488400;25;21415;-85
2024/04/14 09:07:47;;;;;;;2.38;0.57;;;;;;;18.21;40.29;101369.03;5448775;26;20010;-85
2024/04/14 09:10:16;;;;;;;3.17;0.93;;;;;;;17.98;39.85;101353.81;5470127;25;20008;-88
2024/04/14 09:12:46;;;;;;;1.50;0.65;;;;;;;18.65;39.71;101355.34;5473860;25;20016;-85
2024/04/14 09:15:16;;;;;;;1.65;0.57;;;;;;;19.21;38.09;101353.56;5500451;25;20050;-86
2024/04/14 09:17:42;;;;;;;4.68;0.90;;;;;;;19.26;38.26;101348.97;5473485;25;20009;-85
2024/04/14 09:20:11;;;;;;;2.17;1.15;;;;;;;19.33;38.21;101353.16;5473144;25;20001;-84
2024/04/14 09:22:39;;;;;;;3.78;0.80;;;;;;;19.49;37.16;101345.53;5465473;25;19997;-85
2024/04/14 09:25:13;;;;;;;4.38;0.50;;;;;;;18.71;38.41;101354.25;5491080;26;20330;-83
2024/04/14 09:27:39;;;;;;;6.22;1.40;;;;;;;18.78;38.52;101361.97;5488118;25;20334;-85
2024/04/14 09:30:21;;;;;;;3.92;0.52;;;;;;;19.22;37.98;101360.63;5498191;25;20012;-83
2024/04/14 09:32:47;;;;;;;5.10;1.02;;;;;;;19.73;36.33;101365.03;5455666;25;20330;-82
2024/04/14 09:35:16;;;;;;;4.47;0.73;;;;;;;20.66;35.29;101367.75;5465039;25;20021;-84
2024/04/14 09:37:44;;;;;;;4.32;0.55;;;;;;;20.36;34.33;101371.59;5497608;25;20020;-81
2024/04/14 09:40:15;;;;;;;2.13;0.85;;;;;;;19.94;35.04;101376.69;5492472;26;20654;-82
2024/04/14 09:42:44;;;;;;;3.65;0.60;;;;;;;19.17;36.16;101379.34;5464519;25;20001;-84
2024/04/14 09:45:14;;;;;;;2.33;0.50;;;;;;;19.46;35.66;101375.72;5455631;26;20009;-84
2024/04/14 09:47:41;;;;;;;1.58;0.60;;;;;;;20.04;34.76;101379.00;5450651;26;20002;-82
2024/04/14 09:50:10;;;;;;;5.75;0.65;;;;;;;20.15;34.95;101368.84;5447898;26;20014;-84
2024/04/14 09:52:36;;;;;;;2.15;0.88;;;;;;;20.80;34.36;101377.84;5445412;26;20575;-83
2024/04/14 09:55:09;;;;;;;2.42;0.60;;;;;;;21.50;33.44;101372.31;5496137;26;20500;-86
2024/04/14 09:57:35;;;;;;;3.63;0.90;;;;;;;22.17;32.03;101380.06;5451524;26;20009;-83
2024/04/14 10:00:04;;;;;;;6.85;0.68;;;;;;;21.75;31.16;101387.28;5458986;26;20030;-82
2024/04/14 10:02:36;;;;;;;1.65;0.43;;;;;;;20.91;30.13;101384.53;5459401;26;20932;-81
2024/04/14 10:05:10;;;;;;;7.05;0.47;;;;;;;21.07;30.72;101375.00;5460445;26;20010;-85
2024/04/14 10:07:41;;;;;;;0.63;0.40;;;;;;;21.40;30.53;101376.31;5480686;26;20075;-83
2024/04/14 10:10:09;;;;;;;0.93;0.35;;;;;;;21.48;30.86;101377.72;5483832;26;20013;-83
2024/04/14 10:12:40;;;;;;;2.42;0.60;;;;;;;21.76;31.12;101368.53;5462975;26;20104;-84
2024/04/14 10:15:10;;;;;;;2.25;0.57;;;;;;;21.54;30.56;101376.63;5464358;26;20001;-82
2024/04/14 10:17:36;;;;;;;2.70;0.52;;;;;;;20.70;32.88;101368.50;5438905;26;20013;-84
2024/04/14 10:20:24;;;;;;;3.55;0.70;;;;;;;19.80;33.59;101355.03;5450851;26;19998;-84
2024/04/14 10:22:50;;;;;;;2.03;0.47;;;;;;;20.61;33.31;101369.72;5467079;26;20047;-82
2024/04/14 10:25:25;;;;;;;5.80;1.40;;;;;;;20.71;32.70;101377.38;5458747;26;20002;-85
2024/04/14 10:27:52;;;;;;;4.22;0.40;;;;;;;20.66;33.27;101373.06;5487340;26;20006;-85
2024/04/14 10:30:24;;;;;;;2.28;0.60;;;;;;;20.98;33.30;101373.59;5432429;26;20012;-83
2024/04/14 10:33:04;;;;;;;3.35;0.68;;;;;;;21.34;32.84;101368.56;5485779;26;20002;-84
2024/04/14 10:35:32;;;;;;;5.20;0.63;;;;;;;21.31;32.27;101378.44;5450162;26;20127;-82
2024/04/14 10:37:58;;;;;;;1.80;0.40;;;;;;;21.59;32.03;101371.94;5486130;26;20016;-82
2024/04/14 10:40:26;;;;;;;3.30;0.68;;;;;;;21.57;32.26;101380.94;5476050;26;19998;-83
2024/04/14 10:42:52;;;;;;;4.05;0.50;;;;;;;21.69;31.40;101371.53;5452795;26;20461;-85
2024/04/14 10:45:31;;;;;;;0.65;0.52;;;;;;;21.40;31.65;101363.00;5461362;26;20002;-84
2024/04/14 10:47:58;;;;;;;3.15;0.50;;;;;;;21.46;31.54;101363.59;5461022;26;20455;-83
2024/04/14 10:50:32;;;;;;;2.60;0.43;;;;;;;21.44;31.25;101370.78;5460411;26;20017;-83
2024/04/14 10:52:58;;;;;;;3.33;0.60;;;;;;;21.67;31.77;101374.28;5430683;26;21012;-83
2024/04/14 10:55:28;;;;;;;1.23;0.40;;;;;;;21.81;31.02;101370.97;5465090;26;20049;-82
2024/04/14 10:57:54;;;;;;;2.40;0.73;;;;;;;21.48;32.56;101358.19;5482276;26;20012;-84
2024/04/14 11:00:25;;;;;;;1.35;0.50;;;;;;;21.72;31.61;101360.72;5462385;26;20001;-83
2024/04/14 11:02:52;;;;;;;3.67;0.70;;;;;;;21.03;30.80;101357.44;5494487;26;20006;-83
2024/04/14 11:05:26;;;;;;;3.97;0.55;;;;;;;20.45;31.87;101365.94;5490579;26;20353;-86
2024/04/14 11:07:53;;;;;;;3.05;0.70;;;;;;;20.53;32.74;101368.28;5435465;26;20448;-81
2024/04/14 11:10:24;;;;;;;4.00;1.15;;;;;;;21.57;31.80;101356.97;5457266;26;19997;-84
2024/04/14 11:12:50;;;;;;;3.65;0.68;;;;;;;20.16;34.36;101354.63;5456794;26;20010;-85
2024/04/14 11:15:18;;;;;;;3.67;0.98;;;;;;;21.35;33.01;101343.69;5508927;26;20001;-84
2024/04/14 11:17:44;;;;;;;2.47;0.60;;;;;;;22.33;30.88;101346.38;5471270;26;20042;-82
2024/04/14 11:20:16;;;;;;;1.00;0.30;;;;;;;22.24;30.56;101346.81;5475114;26;20416;-83
2024/04/14 11:22:43;;;;;;;0.67;0.47;;;;;;;21.82;31.43;101343.41;5481379;26;20009;-83
2024/04/14 11:25:11;;;;;;;0.80;0.40;;;;;;;21.96;30.92;101345.44;5454189;26;20474;-83
2024/04/14 11:27:37;;;;;;;4.68;1.33;;;;;;;22.23;30.50;101351.31;5448035;26;20856;-84
2024/04/14 11:30:06;;;;;;;2.00;0.60;;;;;;;21.30;31.86;101344.75;5443127;26;19998;-84
2024/04/14 11:32:38;;;;;;;2.20;0.95;;;;;;;20.20;33.00;101352.72;5460972;26;20514;-83